createdAt,value
2023-02-14T00:01:47.065Z,8.70
2023-02-14T00:04:14.114Z,8.00
2023-02-14T00:06:40.845Z,8.30
2023-02-14T00:09:14.263Z,9.30
2023-02-14T00:11:41.050Z,7.70
2023-02-14T00:14:26.868Z,8.20
2023-02-14T00:16:53.399Z,8.00
2023-02-14T00:19:20.526Z,6.20
2023-02-14T00:21:47.335Z,8.00
2023-02-14T00:24:22.655Z,7.60
2023-02-14T00:26:49.672Z,7.80
2023-02-14T00:29:28.913Z,8.50
2023-02-14T00:31:55.650Z,7.50
2023-02-14T00:34:24.266Z,7.40
2023-02-14T00:36:50.778Z,7.30
2023-02-14T00:39:18.105Z,7.70
2023-02-14T00:41:44.856Z,8.20
2023-02-14T00:44:11.831Z,8.00
2023-02-14T00:46:39.675Z,5.90
2023-02-14T00:49:06.415Z,7.90
2023-02-14T00:51:33.326Z,8.90
2023-02-14T00:54:02.665Z,6.90
2023-02-14T00:56:31.184Z,7.30
2023-02-14T00:58:57.649Z,7.40
2023-02-14T01:01:24.473Z,6.40
2023-02-14T01:03:51.558Z,11.00
2023-02-14T01:06:18.707Z,8.20
2023-02-14T01:08:45.866Z,8.50
2023-02-14T01:11:18.748Z,8.50
2023-02-14T01:13:47.259Z,8.20
2023-02-14T01:16:21.195Z,8.80
2023-02-14T01:18:48.387Z,8.20
2023-02-14T01:21:25.831Z,9.50
2023-02-14T01:23:54.381Z,6.40
2023-02-14T01:26:21.898Z,7.70
2023-02-14T01:28:48.579Z,5.80
2023-02-14T01:31:21.960Z,9.60
2023-02-14T01:33:49.196Z,8.30
2023-02-14T01:36:19.145Z,8.50
2023-02-14T01:38:46.161Z,7.90
2023-02-14T01:41:13.088Z,8.10
2023-02-14T01:44:15.215Z,7.70
2023-02-14T01:46:43.768Z,8.50
2023-02-14T01:49:15.288Z,7.40
2023-02-14T01:51:49.693Z,7.30
2023-02-14T01:54:16.309Z,7.60
2023-02-14T01:56:50.886Z,8.00
2023-02-14T01:59:20.204Z,8.20
2023-02-14T02:01:48.279Z,7.30
2023-02-14T02:04:18.954Z,7.90
2023-02-14T02:06:49.421Z,8.50
2023-02-14T02:09:30.700Z,7.50
2023-02-14T02:11:57.564Z,7.80
2023-02-14T02:14:24.324Z,9.20
2023-02-14T02:17:39.191Z,7.70
2023-02-14T02:20:46.476Z,7.80
2023-02-14T02:23:35.089Z,7.00
2023-02-14T02:26:33.055Z,7.40
2023-02-14T02:29:57.580Z,5.80
2023-02-14T02:32:53.775Z,6.60
2023-02-14T02:35:32.687Z,8.30
2023-02-14T02:38:28.915Z,9.10
2023-02-14T02:41:37.074Z,7.40
2023-02-14T02:44:33.438Z,6.40
2023-02-14T02:47:08.933Z,7.80
2023-02-14T02:50:14.686Z,7.20
2023-02-14T02:53:05.383Z,6.80
2023-02-14T02:56:03.599Z,6.70
2023-02-14T02:58:44.055Z,5.30
2023-02-14T03:01:21.311Z,6.40
2023-02-14T03:04:11.603Z,6.40
2023-02-14T03:06:38.043Z,5.60
2023-02-14T03:09:30.894Z,6.20
2023-02-14T03:12:31.524Z,6.00
2023-02-14T03:15:22.378Z,4.00
2023-02-14T03:18:02.242Z,4.10
2023-02-14T03:20:58.623Z,5.00
2023-02-14T03:23:29.849Z,5.50
2023-02-14T03:26:19.573Z,4.90
2023-02-14T03:28:54.057Z,5.70
2023-02-14T03:31:33.520Z,6.10
2023-02-14T03:34:25.652Z,5.70
2023-02-14T03:36:58.267Z,5.10
2023-02-14T03:39:37.529Z,4.50
2023-02-14T03:42:15.854Z,4.30
2023-02-14T03:44:42.557Z,5.80
2023-02-14T03:47:12.200Z,5.90
2023-02-14T03:49:46.276Z,6.80
2023-02-14T03:52:12.828Z,6.00
2023-02-14T03:54:39.398Z,5.00
2023-02-14T03:57:24.969Z,5.50
2023-02-14T03:59:51.705Z,6.10
2023-02-14T04:02:31.361Z,5.20
2023-02-14T04:04:58.268Z,5.40
2023-02-14T04:07:25.057Z,5.70
2023-02-14T04:09:51.814Z,5.80
2023-02-14T04:12:23.989Z,5.60
2023-02-14T04:14:59.128Z,5.30
2023-02-14T04:17:44.373Z,6.80
2023-02-14T04:20:11.242Z,5.60
2023-02-14T04:22:37.915Z,6.60
2023-02-14T04:25:05.270Z,5.40
2023-02-14T04:27:32.110Z,5.90
2023-02-14T04:29:58.916Z,7.00
2023-02-14T04:32:25.860Z,5.50
2023-02-14T04:34:52.988Z,4.90
2023-02-14T04:37:20.210Z,6.30
2023-02-14T04:39:46.785Z,5.50
2023-02-14T04:42:13.799Z,7.10
2023-02-14T04:44:40.253Z,5.70
2023-02-14T04:47:07.424Z,7.40
2023-02-14T04:49:34.630Z,6.60
2023-02-14T04:52:01.590Z,6.10
2023-02-14T04:54:28.346Z,6.50
2023-02-14T04:56:54.792Z,6.50
2023-02-14T04:59:24.582Z,6.10
2023-02-14T05:01:52.806Z,6.20
2023-02-14T05:04:19.810Z,5.90
2023-02-14T05:06:46.527Z,5.90
2023-02-14T05:09:13.026Z,7.40
2023-02-14T05:11:39.710Z,6.30
2023-02-14T05:14:06.903Z,6.80
2023-02-14T05:16:33.785Z,7.00
2023-02-14T05:19:00.273Z,6.80
2023-02-14T05:21:28.099Z,7.20
2023-02-14T05:23:54.844Z,7.40
2023-02-14T05:26:21.302Z,6.60
2023-02-14T05:28:47.961Z,7.70
2023-02-14T05:31:14.939Z,7.20
2023-02-14T05:33:41.955Z,6.20
2023-02-14T05:36:09.112Z,5.40
2023-02-14T05:38:35.548Z,7.50
2023-02-14T05:41:02.773Z,6.40
2023-02-14T05:43:29.945Z,6.20
2023-02-14T05:45:57.247Z,6.70
2023-02-14T05:48:24.059Z,7.80
2023-02-14T05:50:50.875Z,6.20
2023-02-14T05:53:17.606Z,6.80
2023-02-14T05:55:44.180Z,7.00
2023-02-14T05:58:11.884Z,6.70
2023-02-14T06:00:41.224Z,6.80
2023-02-14T06:03:08.482Z,7.00
2023-02-14T06:05:35.467Z,7.80
2023-02-14T06:08:02.235Z,7.80
2023-02-14T06:10:29.179Z,4.90
2023-02-14T06:16:26.590Z,7.70
2023-02-14T06:18:54.686Z,8.00
2023-02-14T06:21:22.741Z,7.70
2023-02-14T06:23:51.057Z,6.70
2023-02-14T06:26:19.184Z,7.20
2023-02-14T06:28:47.137Z,6.90
2023-02-14T06:31:17.632Z,7.40
2023-02-14T06:33:45.752Z,5.50
2023-02-14T06:36:14.016Z,6.60
2023-02-14T06:38:41.974Z,7.50
2023-02-14T06:41:10.612Z,8.10
2023-02-14T06:43:38.607Z,8.30
2023-02-14T06:46:06.836Z,7.10
2023-02-14T06:48:35.193Z,8.10
2023-02-14T06:51:03.664Z,7.60
2023-02-14T06:53:31.798Z,6.50
2023-02-14T06:55:59.727Z,7.50
2023-02-14T06:58:27.737Z,6.90
2023-02-14T07:00:56.532Z,7.40
2023-02-14T07:03:25.948Z,7.70
2023-02-14T07:05:55.086Z,7.70
2023-02-14T07:08:24.800Z,8.20
2023-02-14T07:10:58.244Z,7.20
2023-02-14T07:13:26.868Z,8.50
2023-02-14T07:15:54.889Z,8.20
2023-02-14T07:18:22.778Z,8.60
2023-02-14T07:20:51.355Z,7.90
2023-02-14T07:23:19.568Z,8.10
2023-02-14T07:25:47.428Z,6.70
2023-02-14T07:28:15.555Z,8.80
2023-02-14T07:30:43.686Z,8.60
2023-02-14T07:33:12.309Z,8.30
2023-02-14T07:35:40.539Z,8.40
2023-02-14T07:38:08.911Z,7.30
2023-02-14T07:40:37.132Z,8.20
2023-02-14T07:43:05.274Z,8.40
2023-02-14T07:45:33.003Z,7.80
2023-02-14T07:48:02.346Z,6.40
2023-02-14T07:50:30.834Z,7.90
2023-02-14T07:52:58.654Z,7.80
2023-02-14T07:55:27.192Z,6.60
2023-02-14T07:57:55.369Z,9.10
2023-02-14T08:00:23.458Z,8.20
2023-02-14T08:02:51.692Z,9.10
2023-02-14T08:05:20.170Z,7.40
2023-02-14T08:07:49.417Z,6.30
2023-02-14T08:10:17.760Z,7.70
2023-02-14T08:13:01.089Z,7.70
2023-02-14T08:15:53.205Z,8.20
2023-02-14T08:18:23.247Z,7.30
2023-02-14T08:20:51.669Z,7.00
2023-02-14T08:23:20.692Z,10.10
2023-02-14T08:25:49.714Z,8.60
2023-02-14T08:28:18.427Z,7.90
2023-02-14T08:30:46.493Z,7.30
2023-02-14T08:33:14.243Z,7.90
2023-02-14T08:35:42.456Z,7.70
2023-02-14T08:38:10.724Z,7.40
2023-02-14T08:40:38.770Z,6.50
2023-02-14T08:43:07.562Z,7.60
2023-02-14T08:45:35.359Z,7.20
2023-02-14T08:48:11.692Z,7.20
2023-02-14T08:50:40.514Z,6.70
2023-02-14T08:53:09.895Z,7.60
2023-02-14T08:55:38.210Z,6.90
2023-02-14T08:58:06.603Z,9.50
2023-02-14T09:00:34.714Z,7.00
2023-02-14T09:03:02.786Z,6.80
2023-02-14T09:05:31.168Z,6.40
2023-02-14T09:07:59.700Z,7.30
2023-02-14T09:10:28.649Z,8.50
2023-02-14T09:12:56.900Z,6.90
2023-02-14T09:15:25.077Z,8.00
2023-02-14T09:17:53.234Z,9.00
2023-02-14T09:20:21.323Z,10.20
2023-02-14T09:22:49.470Z,7.90
2023-02-14T09:25:17.796Z,10.20
2023-02-14T09:27:45.844Z,7.30
2023-02-14T09:30:14.950Z,8.20
2023-02-14T09:32:42.919Z,7.70
2023-02-14T09:35:10.951Z,8.40
2023-02-14T09:37:38.783Z,8.50
2023-02-14T09:40:07.894Z,7.50
2023-02-14T09:42:48.791Z,8.60
2023-02-14T09:45:25.298Z,8.00
2023-02-14T09:48:08.804Z,8.20
2023-02-14T09:50:44.567Z,9.80
2023-02-14T09:53:15.573Z,9.50
2023-02-14T09:55:54.316Z,7.80
2023-02-14T09:58:28.714Z,9.00
2023-02-14T10:01:13.421Z,7.10
2023-02-14T10:04:16.952Z,10.10
2023-02-14T10:07:36.093Z,8.50
2023-02-14T10:10:13.967Z,7.00
2023-02-14T10:13:03.245Z,8.30
2023-02-14T10:15:44.153Z,8.30
2023-02-14T10:18:25.810Z,8.10
2023-02-14T10:20:59.369Z,7.90
2023-02-14T10:23:34.781Z,9.50
2023-02-14T10:26:42.139Z,7.90
2023-02-14T10:29:16.138Z,8.80
2023-02-14T10:32:00.456Z,8.00
2023-02-14T10:34:49.377Z,9.80
2023-02-14T10:37:51.421Z,9.00
2023-02-14T10:40:38.032Z,8.70
2023-02-14T10:43:42.867Z,8.50
2023-02-14T10:46:38.943Z,8.90
2023-02-14T10:50:04.803Z,8.90
2023-02-14T10:52:59.181Z,8.40
2023-02-14T10:55:43.147Z,8.30
2023-02-14T10:58:15.259Z,9.10
2023-02-14T11:01:04.349Z,9.10
2023-02-14T11:03:34.557Z,10.10
2023-02-14T11:06:07.070Z,10.20
2023-02-14T11:08:38.314Z,11.10
2023-02-14T11:11:30.466Z,10.10
2023-02-14T11:13:58.634Z,8.10
2023-02-14T11:16:32.167Z,9.20
2023-02-14T11:19:29.672Z,9.00
2023-02-14T11:21:59.441Z,9.20
2023-02-14T11:24:31.875Z,9.90
2023-02-14T11:27:12.748Z,10.20
2023-02-14T11:29:40.658Z,9.70
2023-02-14T11:32:20.251Z,8.90
2023-02-14T11:35:00.443Z,8.10
2023-02-14T11:37:40.094Z,9.60
2023-02-14T11:40:23.865Z,9.80
2023-02-14T11:42:54.773Z,8.40
2023-02-14T11:45:36.112Z,9.20
2023-02-14T11:48:19.758Z,9.80
2023-02-14T11:51:14.132Z,8.40
2023-02-14T11:53:55.998Z,9.10
2023-02-14T11:56:24.101Z,8.90
2023-02-14T11:59:03.107Z,9.30
2023-02-14T12:01:33.895Z,8.80
2023-02-14T12:04:09.122Z,8.60
2023-02-14T12:06:37.261Z,9.30
2023-02-14T12:09:23.630Z,8.70
2023-02-14T12:12:04.591Z,7.50
2023-02-14T12:14:35.371Z,9.40
2023-02-14T12:17:19.589Z,8.20
2023-02-14T12:20:09.588Z,9.70
2023-02-14T12:22:52.340Z,9.40
2023-02-14T12:25:26.006Z,8.90
2023-02-14T12:28:01.453Z,10.50
2023-02-14T12:30:33.933Z,8.80
2023-02-14T12:33:02.013Z,10.90
2023-02-14T12:36:08.064Z,9.40
2023-02-14T12:38:45.482Z,8.00
2023-02-14T12:41:23.149Z,9.30
2023-02-14T12:43:55.961Z,9.20
2023-02-14T12:47:02.823Z,9.20
2023-02-14T12:50:21.688Z,7.60
2023-02-14T12:53:01.470Z,9.10
2023-02-14T12:55:37.384Z,8.40
2023-02-14T12:58:24.556Z,8.50
2023-02-14T13:01:50.739Z,9.80
2023-02-14T13:05:23.262Z,8.70
2023-02-14T13:08:01.290Z,8.40
2023-02-14T13:10:59.346Z,9.00
2023-02-14T13:13:55.925Z,9.30
2023-02-14T13:16:39.186Z,8.60
2023-02-14T13:19:32.231Z,9.20
2023-02-14T13:22:00.892Z,8.90
2023-02-14T13:24:34.622Z,10.70
2023-02-14T13:27:02.982Z,10.40
2023-02-14T13:29:43.814Z,8.60
2023-02-14T13:32:14.551Z,9.60
2023-02-14T13:34:46.686Z,10.30
2023-02-14T13:37:20.931Z,10.40
2023-02-14T13:40:01.714Z,9.70
2023-02-14T13:42:48.036Z,9.80
2023-02-14T13:45:40.329Z,10.90
2023-02-14T13:48:26.185Z,8.80
2023-02-14T13:51:03.170Z,9.60
2023-02-14T13:53:48.087Z,9.50
2023-02-14T13:56:15.902Z,10.00
2023-02-14T13:58:48.401Z,10.20
2023-02-14T14:01:48.065Z,9.70
2023-02-14T14:04:28.641Z,10.30
2023-02-14T14:07:02.608Z,8.40
2023-02-14T14:09:43.250Z,9.90
2023-02-14T14:12:26.264Z,12.00
2023-02-14T14:15:06.561Z,10.60
2023-02-14T14:17:46.124Z,9.20
2023-02-14T14:20:16.836Z,10.50
2023-02-14T14:22:52.090Z,10.20
2023-02-14T14:25:38.481Z,8.70
2023-02-14T14:28:24.288Z,9.40
2023-02-14T14:30:52.600Z,10.30
2023-02-14T14:33:32.755Z,10.10
2023-02-14T14:36:08.155Z,11.20
2023-02-14T14:38:50.239Z,7.40
2023-02-14T14:41:18.441Z,8.90
2023-02-14T14:43:46.589Z,10.80
2023-02-14T14:46:16.007Z,9.90
2023-02-14T14:48:51.598Z,11.00
2023-02-14T14:51:34.551Z,9.90
2023-02-14T14:54:16.404Z,9.50
2023-02-14T14:57:02.541Z,10.30
2023-02-14T14:59:35.575Z,8.30
2023-02-14T15:02:05.500Z,9.20
2023-02-14T15:04:35.427Z,8.90
2023-02-14T15:07:28.577Z,9.90
2023-02-14T15:09:56.660Z,10.00
2023-02-14T15:12:43.843Z,8.00
2023-02-14T15:15:13.737Z,8.30
2023-02-14T15:17:41.999Z,9.20
2023-02-14T15:20:22.024Z,9.40
2023-02-14T15:22:51.727Z,9.20
2023-02-14T15:25:31.834Z,10.60
2023-02-14T15:28:00.945Z,8.90
2023-02-14T15:30:34.862Z,9.30
2023-02-14T15:33:03.786Z,10.80
2023-02-14T15:35:34.667Z,10.80
2023-02-14T15:38:05.356Z,9.20
2023-02-14T15:40:34.766Z,10.10
2023-02-14T15:43:52.361Z,7.70
2023-02-14T15:46:37.214Z,10.70
2023-02-14T15:49:16.853Z,11.50
2023-02-14T15:51:44.778Z,9.50
2023-02-14T15:54:23.096Z,11.70
2023-02-14T15:56:53.607Z,10.10
2023-02-14T15:59:26.035Z,11.80
2023-02-14T16:02:11.841Z,10.30
2023-02-14T16:04:39.672Z,9.80
2023-02-14T16:07:26.383Z,11.20
2023-02-14T16:10:36.449Z,10.60
2023-02-14T16:13:19.497Z,11.10
2023-02-14T16:16:08.641Z,12.60
2023-02-14T16:18:47.793Z,10.70
2023-02-14T16:21:31.467Z,12.60
2023-02-14T16:24:05.574Z,11.80
2023-02-14T16:26:35.168Z,12.30
2023-02-14T16:29:07.583Z,10.60
2023-02-14T16:31:38.054Z,11.30
2023-02-14T16:34:06.160Z,9.80
2023-02-14T16:36:34.250Z,12.70
2023-02-14T16:39:03.025Z,13.10
2023-02-14T16:41:31.787Z,13.90
2023-02-14T16:44:00.027Z,13.50
2023-02-14T16:46:32.708Z,11.00
2023-02-14T16:49:01.107Z,11.20
2023-02-14T16:51:32.375Z,11.40
2023-02-14T16:54:04.634Z,11.00
2023-02-14T16:56:44.216Z,11.60
2023-02-14T16:59:12.554Z,10.60
2023-02-14T17:01:41.117Z,10.90
2023-02-14T17:04:10.182Z,11.50
2023-02-14T17:06:42.465Z,10.30
2023-02-14T17:09:15.169Z,12.40
2023-02-14T17:11:46.446Z,11.90
2023-02-14T17:14:17.836Z,11.30
2023-02-14T17:16:45.786Z,10.60
2023-02-14T17:19:13.815Z,13.10
2023-02-14T17:21:41.833Z,12.80
2023-02-14T17:24:09.668Z,12.40
2023-02-14T17:26:38.185Z,13.00
2023-02-14T17:29:07.152Z,10.60
2023-02-14T17:31:35.107Z,12.30
2023-02-14T17:34:04.188Z,12.20
2023-02-14T17:36:32.497Z,12.00
2023-02-14T17:39:00.723Z,11.40
2023-02-14T17:41:29.392Z,10.90
2023-02-14T17:44:00.611Z,10.60
2023-02-14T17:46:29.998Z,11.00
2023-02-14T17:48:58.412Z,11.00
2023-02-14T17:51:26.352Z,9.80
2023-02-14T17:53:54.609Z,12.40
2023-02-14T17:56:24.403Z,11.00
2023-02-14T17:58:52.976Z,11.00
2023-02-14T18:01:23.747Z,11.20
2023-02-14T18:03:53.758Z,10.00
2023-02-14T18:06:22.067Z,10.90
2023-02-14T18:08:51.802Z,13.30
2023-02-14T18:11:21.235Z,11.00
2023-02-14T18:13:49.924Z,10.80
2023-02-14T18:16:19.113Z,10.60
2023-02-14T18:18:47.582Z,10.40
2023-02-14T18:21:24.160Z,10.40
2023-02-14T18:23:52.639Z,11.40
2023-02-14T18:26:21.978Z,11.50
2023-02-14T18:28:51.250Z,10.30
2023-02-14T18:31:24.013Z,8.30
2023-02-14T18:33:55.041Z,10.80
2023-02-14T18:36:24.462Z,10.30
2023-02-14T18:38:55.630Z,10.10
2023-02-14T18:41:27.778Z,13.70
2023-02-14T18:43:59.191Z,11.00
2023-02-14T18:46:30.242Z,9.90
2023-02-14T18:48:58.422Z,11.80
2023-02-14T18:51:28.920Z,10.50
2023-02-14T18:53:58.157Z,10.10
2023-02-14T18:56:29.795Z,10.90
2023-02-14T18:59:03.929Z,11.10
2023-02-14T19:01:36.921Z,10.70
2023-02-14T19:04:08.584Z,10.80
2023-02-14T19:06:36.758Z,11.50
2023-02-14T19:09:11.999Z,10.70
2023-02-14T19:11:40.553Z,9.50
2023-02-14T19:14:13.391Z,11.00
2023-02-14T19:16:50.131Z,12.00
2023-02-14T19:19:18.425Z,10.70
2023-02-14T19:21:46.408Z,12.40
2023-02-14T19:24:16.498Z,15.50
2023-02-14T19:26:44.718Z,13.70
2023-02-14T19:29:17.610Z,19.40
2023-02-14T19:31:48.535Z,73.90
2023-02-14T19:34:29.960Z,32.40
2023-02-14T19:37:00.651Z,19.10
2023-02-14T19:39:29.849Z,13.50
2023-02-14T19:41:58.194Z,13.30
2023-02-14T19:44:26.310Z,13.50
2023-02-14T19:46:56.477Z,13.30
2023-02-14T19:49:25.045Z,11.50
2023-02-14T19:51:52.790Z,11.70
2023-02-14T19:54:22.410Z,22.40
2023-02-14T19:56:50.298Z,16.90
2023-02-14T19:59:20.392Z,19.60
2023-02-14T20:01:51.252Z,28.60
2023-02-14T20:04:25.220Z,25.20
2023-02-14T20:06:53.490Z,16.50
2023-02-14T20:09:22.374Z,13.10
2023-02-14T20:11:54.937Z,10.20
2023-02-14T20:14:49.875Z,10.70
2023-02-14T20:17:19.535Z,10.10
2023-02-14T20:19:47.656Z,9.90
2023-02-14T20:22:15.638Z,10.20
2023-02-14T20:24:43.662Z,10.20
2023-02-14T20:27:12.294Z,9.70
2023-02-14T20:29:43.126Z,11.20
2023-02-14T20:32:12.602Z,10.00
2023-02-14T20:34:40.416Z,11.60
2023-02-14T20:37:11.187Z,12.50
2023-02-14T20:39:39.184Z,11.80
2023-02-14T20:42:08.622Z,10.50
2023-02-14T20:44:36.793Z,10.40
2023-02-14T20:47:06.878Z,11.70
2023-02-14T20:49:35.932Z,11.60
2023-02-14T20:52:04.059Z,12.10
2023-02-14T20:54:32.205Z,11.10
2023-02-14T21:00:20.269Z,11.00
2023-02-14T21:02:48.255Z,11.10
2023-02-14T21:05:18.456Z,11.70
2023-02-14T21:07:46.699Z,10.80
2023-02-14T21:10:16.385Z,11.90
2023-02-14T21:12:44.507Z,11.40
2023-02-14T21:15:12.800Z,10.70
2023-02-14T21:17:40.800Z,10.30
2023-02-14T21:20:10.714Z,9.70
2023-02-14T21:22:38.897Z,11.00
2023-02-14T21:25:07.707Z,11.80
2023-02-14T21:27:35.710Z,12.00
2023-02-14T21:30:05.490Z,12.80
2023-02-14T21:32:33.633Z,13.50
2023-02-14T21:35:01.560Z,13.50
2023-02-14T21:37:29.482Z,13.20
2023-02-14T21:39:57.602Z,13.80
2023-02-14T21:42:26.163Z,14.60
2023-02-14T21:45:12.788Z,14.60
2023-02-14T21:47:40.922Z,14.20
2023-02-14T21:50:29.642Z,12.20
2023-02-14T21:52:57.666Z,11.90
2023-02-14T21:55:25.887Z,12.20
2023-02-14T21:57:53.727Z,11.50
2023-02-14T22:00:22.795Z,11.50
2023-02-14T22:02:50.979Z,11.70
2023-02-14T22:05:19.048Z,14.70
2023-02-14T22:07:47.081Z,14.20
2023-02-14T22:10:15.101Z,14.70
2023-02-14T22:12:43.092Z,15.00
2023-02-14T22:15:10.901Z,14.90
2023-02-14T22:17:39.012Z,14.90
2023-02-14T22:20:10.209Z,15.50
2023-02-14T22:22:38.118Z,14.70
2023-02-14T22:25:06.386Z,14.40
2023-02-14T22:27:39.763Z,15.00
2023-02-14T22:30:08.876Z,15.00
2023-02-14T22:32:36.871Z,15.90
2023-02-14T22:35:05.143Z,15.80
2023-02-14T22:37:33.286Z,14.60
2023-02-14T22:40:01.378Z,11.80
2023-02-14T22:42:29.236Z,12.30
2023-02-14T22:44:57.167Z,13.50
2023-02-14T22:47:25.276Z,12.90
2023-02-14T22:49:53.245Z,14.80
2023-02-14T22:52:21.142Z,13.80
2023-02-14T22:54:48.988Z,12.30
2023-02-14T22:57:18.946Z,11.50
2023-02-14T22:59:48.225Z,11.20
2023-02-14T23:02:16.379Z,11.50
2023-02-14T23:04:44.327Z,12.90
2023-02-14T23:07:12.176Z,13.10
2023-02-14T23:09:40.261Z,11.50
2023-02-14T23:12:28.226Z,12.50
2023-02-14T23:15:15.161Z,10.70
2023-02-14T23:18:01.895Z,10.90
2023-02-14T23:20:48.137Z,10.90
2023-02-14T23:23:15.936Z,10.90
2023-02-14T23:25:43.797Z,9.90
2023-02-14T23:28:11.809Z,11.50
2023-02-14T23:30:39.882Z,12.10
2023-02-14T23:33:07.964Z,11.50
2023-02-14T23:35:37.260Z,10.30
2023-02-14T23:38:04.965Z,11.40
2023-02-14T23:40:55.916Z,8.60
2023-02-14T23:43:24.003Z,10.70
2023-02-14T23:45:52.626Z,9.60
2023-02-14T23:48:20.656Z,9.70
2023-02-14T23:50:48.786Z,9.90
2023-02-14T23:53:17.722Z,10.00
2023-02-14T23:55:45.530Z,11.10
2023-02-14T23:58:13.473Z,11.10
